Time;durP1;ratioP1;P1;durP2;ratioP2;P2;SDS_P1;SDS_P2;PMS_P1;PMS_P2;Temp;Humidity;BMP_temperature;BMP_pressure;BME280_temperature;BME280_humidity;BME280_pressure;Samples;Min_cycle;Max_cycle;Signal;HPM_P1;HPM_P2
2021/12/03 00:00:16;;;;;;;22.80;10.73;;;;;;;-142.18;100.00;63825.25;5095175;28;20076;-72
2021/12/03 00:02:44;;;;;;;22.67;10.10;;;;;;;-142.18;100.00;63825.25;5078529;28;20167;-73
2021/12/03 00:05:11;;;;;;;19.85;8.55;;;;;;;-142.18;100.00;63825.25;5095839;28;20060;-72
2021/12/03 00:07:41;;;;;;;19.05;10.10;;;;;;;-142.18;100.00;63825.25;5096825;28;20056;-72
2021/12/03 00:10:11;;;;;;;22.08;10.77;;;;;;;-142.18;100.00;63825.25;5096122;28;20135;-72
2021/12/03 00:12:38;;;;;;;20.27;10.23;;;;;;;-142.18;100.00;63825.25;5087336;28;20053;-73
2021/12/03 00:15:07;;;;;;;21.63;10.85;;;;;;;-142.18;100.00;63825.25;5095355;28;20135;-72
2021/12/03 00:17:35;;;;;;;25.30;10.55;;;;;;;-142.18;100.00;63825.25;5080090;28;20195;-72
2021/12/03 00:20:04;;;;;;;23.27;10.60;;;;;;;-142.18;100.00;63825.25;5075062;28;21364;-72
2021/12/03 00:22:32;;;;;;;19.77;9.38;;;;;;;-142.18;100.00;63825.25;5075457;28;20057;-72
2021/12/03 00:25:00;;;;;;;20.65;9.20;;;;;;;-142.18;100.00;63825.25;5074355;28;20091;-72
2021/12/03 00:27:28;;;;;;;17.35;9.38;;;;;;;-142.18;100.00;63825.25;5058133;28;20068;-72
2021/12/03 00:29:55;;;;;;;22.55;9.52;;;;;;;-142.18;100.00;63825.25;5076033;28;20096;-72
2021/12/03 00:32:23;;;;;;;20.98;10.10;;;;;;;-142.18;100.00;63825.25;5075841;28;20119;-72
2021/12/03 00:34:49;;;;;;;19.05;9.15;;;;;;;-142.18;100.00;63825.25;5075096;28;20072;-72
2021/12/03 00:37:17;;;;;;;19.17;9.35;;;;;;;-142.18;100.00;63825.25;5075989;28;20123;-72
2021/12/03 00:39:43;;;;;;;21.30;10.10;;;;;;;-142.18;100.00;63825.25;5059452;28;20122;-72
2021/12/03 00:42:15;;;;;;;20.40;9.77;;;;;;;-142.18;100.00;63825.25;5075409;28;20519;-72
2021/12/03 00:44:45;;;;;;;19.17;9.17;;;;;;;-142.18;100.00;63825.25;5074968;28;20152;-72
2021/12/03 00:47:12;;;;;;;17.50;8.73;;;;;;;-142.18;100.00;63825.25;5076159;28;20166;-73
2021/12/03 00:49:39;;;;;;;21.77;10.57;;;;;;;-142.18;100.00;63825.25;5077827;28;20063;-72
2021/12/03 00:52:06;;;;;;;17.60;9.38;;;;;;;-142.18;100.00;63825.25;5076775;28;20159;-72
2021/12/03 00:54:34;;;;;;;23.88;11.18;;;;;;;-142.18;100.00;63825.25;5076370;28;20068;-72
2021/12/03 00:57:03;;;;;;;18.75;9.00;;;;;;;-142.18;100.00;63825.25;5078007;28;20118;-72
2021/12/03 00:59:30;;;;;;;21.77;9.80;;;;;;;-142.18;100.00;63825.25;5060266;28;20390;-72
2021/12/03 01:01:58;;;;;;;20.33;9.45;;;;;;;-142.18;100.00;63825.25;5078132;28;20128;-72
2021/12/03 01:04:25;;;;;;;19.80;9.77;;;;;;;-142.18;100.00;63825.25;5077448;28;20060;-72
2021/12/03 01:06:51;;;;;;;21.00;10.48;;;;;;;-142.18;100.00;63825.25;5077650;28;20067;-72
2021/12/03 01:09:18;;;;;;;28.23;12.88;;;;;;;-142.18;100.00;63825.25;5074495;28;20104;-72
2021/12/03 01:11:44;;;;;;;19.98;9.55;;;;;;;-142.18;100.00;63825.25;5075787;28;20063;-72
2021/12/03 01:14:11;;;;;;;21.38;10.20;;;;;;;-142.18;100.00;63825.25;5075357;28;20153;-72
2021/12/03 01:16:37;;;;;;;21.92;10.40;;;;;;;-142.18;100.00;63825.25;5074897;28;20510;-72
2021/12/03 01:19:04;;;;;;;18.38;9.15;;;;;;;-142.18;100.00;63825.25;5075329;28;20049;-72
2021/12/03 01:21:30;;;;;;;24.95;11.40;;;;;;;-142.18;100.00;63825.25;5075866;28;20164;-72
2021/12/03 01:23:58;;;;;;;22.05;10.55;;;;;;;-142.18;100.00;63825.25;5074995;28;20092;-72
2021/12/03 01:26:25;;;;;;;23.20;11.57;;;;;;;-142.18;100.00;63825.25;5075275;28;20064;-72
2021/12/03 01:28:53;;;;;;;20.17;10.48;;;;;;;-142.18;100.00;63825.25;5057004;28;20060;-72
2021/12/03 01:31:20;;;;;;;21.92;10.52;;;;;;;-142.18;100.00;63825.25;5074763;28;20095;-72
2021/12/03 01:33:51;;;;;;;23.73;10.27;;;;;;;-142.18;100.00;63825.25;5073470;28;20143;-72
2021/12/03 01:36:18;;;;;;;27.65;11.82;;;;;;;-142.18;100.00;63825.25;5073722;28;20061;-72
2021/12/03 01:38:46;;;;;;;22.63;10.30;;;;;;;-142.18;100.00;63825.25;5074319;28;20176;-72
2021/12/03 01:41:12;;;;;;;18.60;9.27;;;;;;;-142.18;100.00;63825.25;5056134;28;20099;-72
2021/12/03 01:43:42;;;;;;;19.45;10.02;;;;;;;-142.18;100.00;63825.25;5056419;28;20060;-72
2021/12/03 01:46:11;;;;;;;19.23;9.10;;;;;;;-142.18;100.00;63825.25;5073656;28;20057;-72
2021/12/03 01:48:39;;;;;;;22.92;10.88;;;;;;;-142.18;100.00;63825.25;5074223;28;20485;-72
2021/12/03 01:51:07;;;;;;;20.50;9.73;;;;;;;-142.18;100.00;63825.25;5074142;28;20064;-72
2021/12/03 01:53:37;;;;;;;20.75;9.75;;;;;;;-142.18;100.00;63825.25;5074051;28;20099;-72
2021/12/03 01:56:09;;;;;;;21.55;10.02;;;;;;;-142.18;100.00;63825.25;5073470;28;20119;-72
2021/12/03 01:58:36;;;;;;;23.40;9.40;;;;;;;-142.18;100.00;63825.25;5074891;28;20064;-72
2021/12/03 02:01:10;;;;;;;20.40;10.15;;;;;;;-142.18;100.00;63825.25;5073305;28;20065;-72
2021/12/03 02:03:40;;;;;;;20.40;9.80;;;;;;;-142.18;100.00;63825.25;5073307;28;20053;-72
2021/12/03 02:06:08;;;;;;;22.63;9.43;;;;;;;-142.18;100.00;63825.25;5073682;28;20857;-72
2021/12/03 02:08:37;;;;;;;19.90;9.45;;;;;;;-142.18;100.00;63825.25;5074861;28;20159;-72
2021/12/03 02:11:06;;;;;;;22.15;10.13;;;;;;;-142.18;100.00;63825.25;5073881;28;20048;-72
2021/12/03 02:13:33;;;;;;;18.92;9.02;;;;;;;-142.18;100.00;63825.25;5073342;28;20461;-72
2021/12/03 02:16:00;;;;;;;20.83;9.05;;;;;;;-142.18;100.00;63825.25;5073947;28;20144;-72
2021/12/03 02:18:28;;;;;;;19.48;9.50;;;;;;;-142.18;100.00;63825.25;5056522;28;20436;-72
2021/12/03 02:20:58;;;;;;;21.33;9.35;;;;;;;-142.18;100.00;63825.25;5056928;28;20064;-72
2021/12/03 02:23:27;;;;;;;22.63;9.68;;;;;;;-142.18;100.00;63825.25;5074089;28;20132;-72
2021/12/03 02:25:54;;;;;;;23.77;10.05;;;;;;;-142.18;100.00;63825.25;5056535;28;20193;-72
2021/12/03 02:28:24;;;;;;;21.65;9.57;;;;;;;-142.18;100.00;63825.25;5057014;28;20096;-72
2021/12/03 02:30:54;;;;;;;21.85;9.35;;;;;;;-142.18;100.00;63825.25;5073984;28;20351;-73
2021/12/03 02:33:57;;;;;;;18.60;9.85;;;;;;;-142.18;100.00;63825.25;5074036;28;20068;-72
2021/12/03 02:36:24;;;;;;;24.27;10.63;;;;;;;-142.18;100.00;63825.25;5071808;28;20061;-72
2021/12/03 02:38:52;;;;;;;22.73;10.82;;;;;;;-142.18;100.00;63825.25;5073502;28;20418;-72
2021/12/03 02:41:22;;;;;;;18.58;8.68;;;;;;;-142.18;100.00;63825.25;5072889;28;20061;-72
2021/12/03 02:43:50;;;;;;;24.52;10.43;;;;;;;-142.18;100.00;63825.25;5074129;28;20083;-72
2021/12/03 02:46:16;;;;;;;19.27;9.57;;;;;;;-142.18;100.00;63825.25;5074245;28;20089;-72
2021/12/03 02:48:43;;;;;;;20.98;9.15;;;;;;;-142.18;100.00;63825.25;5073404;28;20064;-72
2021/12/03 02:51:10;;;;;;;24.08;10.50;;;;;;;-142.18;100.00;63825.25;5073976;28;20586;-73
2021/12/03 02:53:38;;;;;;;19.23;9.30;;;;;;;-142.18;100.00;63825.25;5073354;28;20144;-72
2021/12/03 02:56:07;;;;;;;20.58;9.32;;;;;;;-142.18;100.00;63825.25;5056325;28;20152;-72
2021/12/03 02:58:35;;;;;;;22.15;9.85;;;;;;;-142.18;100.00;63825.25;5073167;28;20478;-72
2021/12/03 03:01:05;;;;;;;22.40;9.05;;;;;;;-142.18;100.00;63825.25;5073200;28;20142;-72
2021/12/03 03:03:32;;;;;;;23.63;10.15;;;;;;;-142.18;100.00;63825.25;5056224;28;20159;-72
2021/12/03 03:06:02;;;;;;;25.02;10.13;;;;;;;-142.18;100.00;63825.25;5072936;28;20053;-72
2021/12/03 03:08:31;;;;;;;21.23;10.20;;;;;;;-142.18;100.00;63825.25;5071681;28;20191;-72
2021/12/03 03:11:00;;;;;;;20.35;9.73;;;;;;;-142.18;100.00;63825.25;5071737;28;20114;-72
2021/12/03 03:13:26;;;;;;;22.67;9.68;;;;;;;-142.18;100.00;63825.25;5054427;28;20060;-72
2021/12/03 03:15:53;;;;;;;21.88;10.00;;;;;;;-142.18;100.00;63825.25;5055599;28;20518;-72
2021/12/03 03:18:26;;;;;;;23.55;9.55;;;;;;;-142.18;100.00;63825.25;5074420;28;20090;-72
2021/12/03 03:20:54;;;;;;;22.02;9.85;;;;;;;-142.18;100.00;63825.25;5075638;28;20143;-72
2021/12/03 03:23:23;;;;;;;19.25;8.75;;;;;;;-142.18;100.00;63825.25;5086656;28;20056;-72
2021/12/03 03:25:51;;;;;;;22.17;9.93;;;;;;;-142.18;100.00;63825.25;5088699;28;20202;-72
2021/12/03 03:28:20;;;;;;;17.48;8.18;;;;;;;-142.18;100.00;63825.25;5094692;28;20114;-72
2021/12/03 03:30:51;;;;;;;22.40;9.82;;;;;;;-142.18;100.00;63825.25;5076786;28;20048;-72
2021/12/03 03:33:18;;;;;;;21.80;8.82;;;;;;;-142.18;100.00;63825.25;5057240;28;20122;-72
2021/12/03 03:35:46;;;;;;;22.65;9.10;;;;;;;-142.18;100.00;63825.25;5056767;28;20052;-72
2021/12/03 03:38:15;;;;;;;19.77;9.27;;;;;;;-142.18;100.00;63825.25;5074598;28;20181;-72
2021/12/03 03:40:44;;;;;;;20.55;8.68;;;;;;;-142.18;100.00;63825.25;5056654;28;20474;-72
2021/12/03 03:43:14;;;;;;;22.80;9.88;;;;;;;-142.18;100.00;63825.25;5074813;28;20067;-72
2021/12/03 03:45:43;;;;;;;19.95;8.45;;;;;;;-142.18;100.00;63825.25;5074749;28;20084;-72
2021/12/03 03:48:10;;;;;;;19.40;8.50;;;;;;;-142.18;100.00;63825.25;5056954;28;20061;-72
2021/12/03 03:50:38;;;;;;;19.55;8.38;;;;;;;-142.18;100.00;63825.25;5065743;28;20138;-72
2021/12/03 03:53:09;;;;;;;18.50;9.13;;;;;;;-142.18;100.00;63825.25;5074492;28;20080;-72
2021/12/03 03:55:39;;;;;;;20.75;9.30;;;;;;;-142.18;100.00;63825.25;5057888;28;20053;-72
2021/12/03 03:58:07;;;;;;;18.88;8.40;;;;;;;-142.18;100.00;63825.25;5058450;28;20455;-72
2021/12/03 04:00:39;;;;;;;21.10;9.57;;;;;;;-142.18;100.00;63825.25;5057392;28;20155;-72
2021/12/03 04:03:06;;;;;;;20.60;9.80;;;;;;;-142.18;100.00;63825.25;5075741;28;20414;-72
2021/12/03 04:05:34;;;;;;;19.75;8.75;;;;;;;-142.18;100.00;63825.25;5075705;28;20123;-71
2021/12/03 04:08:01;;;;;;;21.10;9.00;;;;;;;-142.18;100.00;63825.25;5075615;28;20151;-72
2021/12/03 04:10:29;;;;;;;17.63;8.05;;;;;;;-142.18;100.00;63825.25;5075114;28;20092;-72
2021/12/03 04:12:57;;;;;;;18.23;8.77;;;;;;;-142.18;100.00;63825.25;5074896;28;20118;-72
2021/12/03 04:15:24;;;;;;;23.92;9.35;;;;;;;-142.18;100.00;63825.25;5076812;28;20064;-71
2021/12/03 04:17:50;;;;;;;17.13;8.13;;;;;;;-142.18;100.00;63825.25;5075456;28;20148;-71
2021/12/03 04:20:19;;;;;;;17.15;8.30;;;;;;;-142.18;100.00;63825.25;5075530;28;20052;-73
2021/12/03 04:22:46;;;;;;;34.28;13.27;;;;;;;-142.18;100.00;63825.25;5057879;28;20084;-72
2021/12/03 04:25:17;;;;;;;18.02;8.50;;;;;;;-142.18;100.00;63825.25;5075969;28;20061;-73
2021/12/03 04:27:44;;;;;;;19.52;8.95;;;;;;;-142.18;100.00;63825.25;5075891;28;20526;-73
2021/12/03 04:30:23;;;;;;;24.83;10.43;;;;;;;-142.18;100.00;63825.25;5057227;28;20726;-72
2021/12/03 04:32:51;;;;;;;21.73;9.35;;;;;;;-142.18;100.00;63825.25;5075401;28;20067;-72
2021/12/03 04:35:20;;;;;;;19.08;8.77;;;;;;;-142.18;100.00;63825.25;5075582;28;20099;-73
2021/12/03 04:37:46;;;;;;;19.08;9.23;;;;;;;-142.18;100.00;63825.25;5058264;28;20068;-73
2021/12/03 04:40:18;;;;;;;19.83;9.40;;;;;;;-142.18;100.00;63825.25;5076770;28;20713;-72
2021/12/03 04:42:45;;;;;;;19.10;8.70;;;;;;;-142.18;100.00;63825.25;5079518;28;20088;-73
2021/12/03 04:45:18;;;;;;;20.60;8.48;;;;;;;-142.18;100.00;63825.25;5077272;28;20080;-72
2021/12/03 04:47:47;;;;;;;18.17;9.05;;;;;;;-142.18;100.00;63825.25;5094596;28;20040;-73
2021/12/03 04:50:19;;;;;;;18.15;8.13;;;;;;;-142.18;100.00;63825.25;5094630;28;20060;-73
2021/12/03 04:52:48;;;;;;;21.05;7.65;;;;;;;-142.18;100.00;63825.25;5093869;28;20469;-73
2021/12/03 04:55:17;;;;;;;14.55;7.13;;;;;;;-142.18;100.00;63825.25;5094065;28;20071;-73
2021/12/03 04:57:44;;;;;;;13.85;6.43;;;;;;;-142.18;100.00;63825.25;5075723;28;20143;-73
2021/12/03 05:00:16;;;;;;;18.42;7.78;;;;;;;-142.18;100.00;63825.25;5094135;28;20764;-72
2021/12/03 05:02:43;;;;;;;17.30;7.40;;;;;;;-142.18;100.00;63825.25;5094019;28;20087;-71
2021/12/03 05:05:11;;;;;;;15.13;6.97;;;;;;;-142.18;100.00;63825.25;5094407;28;20064;-71
2021/12/03 05:10:09;;;;;;;16.17;6.90;;;;;;;-142.18;100.00;63825.25;5095548;28;20083;-71
2021/12/03 05:12:37;;;;;;;16.52;6.75;;;;;;;-142.18;100.00;63825.25;5094170;28;20130;-71
2021/12/03 05:15:24;;;;;;;14.88;6.88;;;;;;;-142.18;100.00;63825.25;5095800;28;20071;-71
2021/12/03 05:17:53;;;;;;;16.75;7.18;;;;;;;-142.18;100.00;63825.25;5095095;28;20506;-71
2021/12/03 05:20:20;;;;;;;19.02;7.90;;;;;;;-142.18;100.00;63825.25;5094325;28;20056;-71
2021/12/03 05:22:48;;;;;;;18.55;7.93;;;;;;;-142.18;100.00;63825.25;5094936;28;20056;-71
2021/12/03 05:25:16;;;;;;;17.17;7.88;;;;;;;-142.18;100.00;63825.25;5093269;28;20114;-72
2021/12/03 05:27:44;;;;;;;19.08;8.50;;;;;;;-142.18;100.00;63825.25;5094248;28;20164;-71
2021/12/03 05:30:12;;;;;;;17.45;7.75;;;;;;;-142.18;100.00;63825.25;5093646;28;20152;-72
2021/12/03 05:32:40;;;;;;;16.92;8.60;;;;;;;-142.18;100.00;63825.25;5076818;28;20780;-72
2021/12/03 05:35:08;;;;;;;17.50;8.25;;;;;;;-142.18;100.00;63825.25;5094674;28;20091;-71
2021/12/03 05:37:36;;;;;;;18.52;8.23;;;;;;;-142.18;100.00;63825.25;5094964;28;20071;-72
2021/12/03 05:40:04;;;;;;;19.38;9.43;;;;;;;-142.18;100.00;63825.25;5094978;28;20144;-72
2021/12/03 05:42:32;;;;;;;19.98;9.15;;;;;;;-142.18;100.00;63825.25;5075977;28;20122;-72
2021/12/03 05:45:00;;;;;;;19.17;9.50;;;;;;;-142.18;100.00;63825.25;5093831;28;20056;-72
2021/12/03 05:47:28;;;;;;;26.65;11.60;;;;;;;-142.18;100.00;63825.25;5094160;28;20107;-72
2021/12/03 05:49:57;;;;;;;23.67;10.70;;;;;;;-142.18;100.00;63825.25;5095485;28;20049;-72
2021/12/03 05:52:25;;;;;;;19.65;10.05;;;;;;;-142.18;100.00;63825.25;5075958;28;20117;-72
2021/12/03 05:54:52;;;;;;;22.13;10.73;;;;;;;-142.18;100.00;63825.25;5093173;28;20068;-71
2021/12/03 05:57:20;;;;;;;22.13;10.30;;;;;;;-142.18;100.00;63825.25;5075694;28;20061;-71
2021/12/03 05:59:49;;;;;;;20.45;10.63;;;;;;;-142.18;100.00;63825.25;5075502;28;20097;-72
2021/12/03 06:02:16;;;;;;;22.67;10.73;;;;;;;-142.18;100.00;63825.25;5093254;28;20103;-72
2021/12/03 06:04:44;;;;;;;24.83;10.68;;;;;;;-142.18;100.00;63825.25;5093559;28;20110;-72
2021/12/03 06:07:12;;;;;;;20.80;9.10;;;;;;;-142.18;100.00;63825.25;5075851;28;20088;-73
2021/12/03 06:09:42;;;;;;;18.98;9.88;;;;;;;-142.18;100.00;63825.25;5092689;28;20056;-73
2021/12/03 06:12:09;;;;;;;20.13;10.52;;;;;;;-142.18;100.00;63825.25;5091675;28;20060;-73
2021/12/03 06:14:43;;;;;;;24.95;10.60;;;;;;;-142.18;100.00;63825.25;5092503;28;20056;-72
2021/12/03 06:17:13;;;;;;;20.15;9.98;;;;;;;-142.18;100.00;63825.25;5092227;28;20067;-72
2021/12/03 06:19:45;;;;;;;20.98;10.25;;;;;;;-142.18;100.00;63825.25;5092295;28;20061;-72
2021/12/03 06:22:17;;;;;;;26.67;11.55;;;;;;;-142.18;100.00;63825.25;5092831;28;20049;-73
2021/12/03 06:24:49;;;;;;;21.83;10.93;;;;;;;-142.18;100.00;63825.25;5094463;28;20152;-73
2021/12/03 06:27:20;;;;;;;25.70;12.45;;;;;;;-142.18;100.00;63825.25;5075903;28;20056;-72
2021/12/03 06:29:46;;;;;;;24.10;11.18;;;;;;;-142.18;100.00;63825.25;5094483;28;20067;-72
2021/12/03 06:32:13;;;;;;;25.65;11.20;;;;;;;-142.18;100.00;63825.25;5093499;28;20060;-73
2021/12/03 06:34:43;;;;;;;23.85;10.88;;;;;;;-142.18;100.00;63825.25;5076145;28;20692;-73
2021/12/03 06:37:13;;;;;;;20.40;10.27;;;;;;;-142.18;100.00;63825.25;5092931;28;20057;-71
2021/12/03 06:39:46;;;;;;;24.25;11.27;;;;;;;-142.18;100.00;63825.25;5093950;28;20060;-72
2021/12/03 06:42:15;;;;;;;21.33;9.65;;;;;;;-142.18;100.00;63825.25;5077222;28;20056;-71
2021/12/03 06:44:45;;;;;;;20.20;10.02;;;;;;;-142.18;100.00;63825.25;5075034;28;20057;-71
2021/12/03 06:47:12;;;;;;;21.50;10.05;;;;;;;-142.18;100.00;63825.25;5094139;28;20060;-72
2021/12/03 06:49:39;;;;;;;18.70;9.68;;;;;;;-142.18;100.00;63825.25;5096927;28;20077;-73
2021/12/03 06:52:11;;;;;;;18.45;9.73;;;;;;;-142.18;100.00;63825.25;5079386;28;20045;-72
2021/12/03 06:54:38;;;;;;;18.90;9.88;;;;;;;-142.18;100.00;63825.25;5099794;28;20060;-72
2021/12/03 06:57:10;;;;;;;24.48;10.73;;;;;;;-142.18;100.00;63825.25;5099345;28;20070;-73
2021/12/03 06:59:40;;;;;;;24.37;10.13;;;;;;;-142.18;100.00;63825.25;5080148;28;20533;-72
2021/12/03 07:02:12;;;;;;;22.02;10.30;;;;;;;-142.18;100.00;63825.25;5100123;28;20148;-72
2021/12/03 07:04:48;;;;;;;23.15;10.70;;;;;;;-142.18;100.00;63825.25;5099408;28;20052;-73
2021/12/03 07:07:17;;;;;;;20.13;9.13;;;;;;;-142.18;100.00;63825.25;5098217;28;20118;-74
2021/12/03 07:09:45;;;;;;;20.15;9.02;;;;;;;-142.18;100.00;63825.25;5098396;28;20057;-72
2021/12/03 07:12:13;;;;;;;22.08;9.65;;;;;;;-142.18;100.00;63825.25;5097816;28;20426;-72
2021/12/03 07:14:40;;;;;;;22.25;9.70;;;;;;;-142.18;100.00;63825.25;5098140;28;20119;-72
2021/12/03 07:17:07;;;;;;;23.30;10.07;;;;;;;-142.18;100.00;63825.25;5097899;28;20056;-72
2021/12/03 07:19:34;;;;;;;23.20;10.00;;;;;;;-142.18;100.00;63825.25;5097130;28;20053;-72
2021/12/03 07:22:02;;;;;;;22.30;9.70;;;;;;;-142.18;100.00;63825.25;5097063;28;20068;-72
2021/12/03 07:24:29;;;;;;;19.85;9.68;;;;;;;-142.18;100.00;63825.25;5097939;28;20135;-72
2021/12/03 07:26:56;;;;;;;22.58;11.23;;;;;;;-142.18;100.00;63825.25;5097978;28;20057;-72
2021/12/03 07:29:23;;;;;;;24.63;11.93;;;;;;;-142.18;100.00;63825.25;5098008;28;20048;-72
2021/12/03 07:31:50;;;;;;;21.80;11.15;;;;;;;-142.18;100.00;63825.25;5097524;28;20056;-73
2021/12/03 07:34:21;;;;;;;23.35;11.43;;;;;;;-142.18;100.00;63825.25;5096501;28;20079;-73
2021/12/03 07:36:49;;;;;;;24.55;10.38;;;;;;;-142.18;100.00;63825.25;5078178;28;20063;-73
2021/12/03 07:39:17;;;;;;;25.63;10.77;;;;;;;-142.18;100.00;63825.25;5097112;28;20067;-73
2021/12/03 07:41:43;;;;;;;24.67;10.30;;;;;;;-142.18;100.00;63825.25;5096095;28;20141;-72
2021/12/03 07:44:10;;;;;;;26.70;11.15;;;;;;;-142.18;100.00;63825.25;5094664;28;20056;-72
2021/12/03 07:46:37;;;;;;;24.80;11.05;;;;;;;-142.18;100.00;63825.25;5116379;28;20710;-73
2021/12/03 07:49:07;;;;;;;24.98;11.52;;;;;;;-142.18;100.00;63825.25;5111033;28;20061;-74
2021/12/03 07:51:36;;;;;;;24.15;11.52;;;;;;;-142.18;100.00;63825.25;5092881;28;20063;-73
2021/12/03 07:54:07;;;;;;;22.85;11.98;;;;;;;-142.18;100.00;63825.25;5094585;28;20056;-73
2021/12/03 07:56:36;;;;;;;24.98;10.93;;;;;;;-142.18;100.00;63825.25;5096671;28;20049;-73
2021/12/03 07:59:05;;;;;;;24.95;12.30;;;;;;;-142.18;100.00;63825.25;5096397;28;20143;-72
2021/12/03 08:01:33;;;;;;;24.45;11.77;;;;;;;-142.18;100.00;63825.25;5095042;28;20157;-73
2021/12/03 08:04:02;;;;;;;29.10;13.35;;;;;;;-142.18;100.00;63825.25;5096345;28;20061;-73
2021/12/03 08:06:30;;;;;;;24.00;11.43;;;;;;;-142.18;100.00;63825.25;5096410;28;20056;-73
2021/12/03 08:08:58;;;;;;;76.63;30.52;;;;;;;-142.18;100.00;63825.25;5079914;28;20331;-73
2021/12/03 08:11:27;;;;;;;31.63;14.98;;;;;;;-142.18;100.00;63825.25;5096395;28;20062;-74
2021/12/03 08:13:57;;;;;;;24.40;11.88;;;;;;;-142.18;100.00;63825.25;5078719;28;20049;-73
2021/12/03 08:16:25;;;;;;;24.67;11.68;;;;;;;-142.18;100.00;63825.25;5095379;28;20067;-73
2021/12/03 08:18:56;;;;;;;24.38;12.25;;;;;;;-142.18;100.00;63825.25;5096610;28;20064;-73
2021/12/03 08:21:23;;;;;;;25.67;12.65;;;;;;;-142.18;100.00;63825.25;5095812;28;20091;-73
2021/12/03 08:23:51;;;;;;;24.45;11.68;;;;;;;-142.18;100.00;63825.25;5077814;28;20647;-73
2021/12/03 08:26:18;;;;;;;25.63;11.90;;;;;;;-142.18;100.00;63825.25;5087372;28;20155;-73
2021/12/03 08:28:46;;;;;;;24.77;12.02;;;;;;;-142.18;100.00;63825.25;5096525;28;20056;-73
2021/12/03 08:31:15;;;;;;;21.52;10.95;;;;;;;-142.18;100.00;63825.25;5093818;28;20057;-72
2021/12/03 08:33:44;;;;;;;23.35;12.00;;;;;;;-142.18;100.00;63825.25;5096356;28;20114;-72
2021/12/03 08:36:12;;;;;;;25.15;12.00;;;;;;;-142.18;100.00;63825.25;5095593;28;20118;-72
2021/12/03 08:38:41;;;;;;;28.52;12.77;;;;;;;-142.18;100.00;63825.25;5098162;28;20151;-72
2021/12/03 08:41:09;;;;;;;22.60;11.68;;;;;;;-142.18;100.00;63825.25;5078474;28;20446;-73
2021/12/03 08:43:36;;;;;;;23.33;11.88;;;;;;;-142.18;100.00;63825.25;5096258;28;20543;-72
2021/12/03 08:46:09;;;;;;;22.35;12.00;;;;;;;-142.18;100.00;63825.25;5096189;28;20078;-72
2021/12/03 08:48:45;;;;;;;23.85;11.68;;;;;;;-142.18;100.00;63825.25;5096335;28;20061;-72
2021/12/03 08:56:47;;;;;;;25.10;12.52;;;;;;;-142.18;100.00;63825.25;5073189;28;20083;-73
2021/12/03 08:59:15;;;;;;;24.75;12.32;;;;;;;-142.18;100.00;63825.25;5077782;28;20049;-73
2021/12/03 09:01:46;;;;;;;31.08;13.75;;;;;;;-142.18;100.00;63825.25;5094870;28;20098;-73
2021/12/03 09:04:16;;;;;;;25.08;12.57;;;;;;;-142.18;100.00;63825.25;5093128;28;20052;-73
2021/12/03 09:06:48;;;;;;;26.90;12.57;;;;;;;-142.18;100.00;63825.25;5078019;28;20091;-73
2021/12/03 09:09:15;;;;;;;26.40;12.90;;;;;;;-142.18;100.00;63825.25;5094540;28;20063;-74
2021/12/03 09:11:43;;;;;;;26.98;12.25;;;;;;;-142.18;100.00;63825.25;5077393;28;20064;-73
2021/12/03 09:14:16;;;;;;;26.30;12.32;;;;;;;-142.18;100.00;63825.25;5094557;28;20060;-73
2021/12/03 09:16:46;;;;;;;29.02;13.25;;;;;;;-142.18;100.00;63825.25;5094514;28;20052;-74
2021/12/03 09:19:27;;;;;;;31.52;12.93;;;;;;;-142.18;100.00;63825.25;5095015;28;20060;-74
2021/12/03 09:21:53;;;;;;;31.70;13.75;;;;;;;-142.18;100.00;63825.25;5094860;28;20067;-74
2021/12/03 09:24:29;;;;;;;31.02;13.98;;;;;;;-142.18;100.00;63825.25;5075579;28;20053;-74
2021/12/03 09:26:58;;;;;;;32.83;15.95;;;;;;;-142.18;100.00;63825.25;5076197;28;20063;-74
2021/12/03 09:29:32;;;;;;;28.63;13.20;;;;;;;-142.18;100.00;63825.25;5094185;28;20056;-74
2021/12/03 09:32:00;;;;;;;30.48;13.45;;;;;;;-142.18;100.00;63825.25;5093024;28;20114;-74
2021/12/03 09:34:33;;;;;;;31.65;15.00;;;;;;;-142.18;100.00;63825.25;5090680;28;20084;-74
2021/12/03 09:37:06;;;;;;;31.83;14.88;;;;;;;-142.18;100.00;63825.25;5082364;28;20057;-72
2021/12/03 09:39:52;;;;;;;33.10;14.75;;;;;;;-142.18;100.00;63825.25;5073205;28;20064;-73
2021/12/03 09:42:38;;;;;;;34.70;16.85;;;;;;;-142.18;100.00;63825.25;5083179;28;20419;-73
2021/12/03 09:45:08;;;;;;;31.73;13.98;;;;;;;-142.18;100.00;63825.25;5089784;28;20053;-73
2021/12/03 09:47:37;;;;;;;31.67;12.90;;;;;;;-142.18;100.00;63825.25;5078056;28;20096;-73
2021/12/03 09:50:12;;;;;;;34.20;15.80;;;;;;;-142.18;100.00;63825.25;5056904;28;20155;-74
2021/12/03 09:53:04;;;;;;;39.00;15.73;;;;;;;-142.18;100.00;63825.25;5070420;28;20110;-74
2021/12/03 09:55:33;;;;;;;31.48;13.68;;;;;;;-142.18;100.00;63825.25;5069200;28;20061;-74
2021/12/03 10:01:02;;;;;;;27.25;12.77;;;;;;;-142.18;100.00;63825.25;5071447;28;20144;-74
2021/12/03 10:04:02;;;;;;;23.90;12.20;;;;;;;-142.18;100.00;63825.25;5054446;28;20446;-74
2021/12/03 10:15:31;;;;;;;31.15;16.10;;;;;;;-142.18;100.00;63825.25;5094362;28;20087;-73
2021/12/03 10:18:07;;;;;;;31.77;15.68;;;;;;;-142.18;100.00;63825.25;5093408;28;20122;-74
2021/12/03 10:21:01;;;;;;;25.38;11.98;;;;;;;-142.18;100.00;63825.25;5094690;28;20053;-73
2021/12/03 10:39:52;;;;;;;20.90;11.68;;;;;;;-142.18;100.00;63825.25;5098946;28;20067;-73
2021/12/03 10:48:04;;;;;;;16.98;10.38;;;;;;;-142.18;100.00;63825.25;5099663;28;20086;-73
2021/12/03 10:53:20;;;;;;;18.92;11.57;;;;;;;-142.18;100.00;63825.25;5097923;28;20060;-73
2021/12/03 11:04:47;;;;;;;18.83;10.63;;;;;;;-142.18;100.00;63825.25;5096295;28;20440;-73
2021/12/03 11:38:27;;;;;;;16.65;9.02;;;;;;;-142.18;100.00;63825.25;5090041;28;20096;-73
2021/12/03 11:56:54;;;;;;;10.27;4.78;;;;;;;-142.18;100.00;63825.25;5074369;28;20072;-73
2021/12/03 12:19:41;;;;;;;8.60;4.18;;;;;;;-142.18;100.00;63825.25;5091487;28;20666;-74
2021/12/03 12:23:28;;;;;;;10.43;4.60;;;;;;;-142.18;100.00;63825.25;5080269;28;20056;-75
2021/12/03 12:25:47;;;;;;;10.77;4.22;;;;;;;-142.18;100.00;63825.25;5072618;28;20068;-74
2021/12/03 12:34:34;;;;;;;13.13;4.63;;;;;;;-142.18;100.00;63825.25;5072459;28;20067;-74
2021/12/03 12:37:46;;;;;;;7.50;4.43;;;;;;;-142.18;100.00;63825.25;5071483;28;20057;-74
2021/12/03 12:40:47;;;;;;;12.32;4.82;;;;;;;-142.18;100.00;63825.25;5065005;28;20045;-73
2021/12/03 13:28:14;;;;;;;9.75;3.47;;;;;;;-142.18;100.00;63825.25;5092446;28;20513;-72
2021/12/03 13:31:37;;;;;;;12.23;3.80;;;;;;;-142.18;100.00;63825.25;5092183;28;20106;-72
2021/12/03 13:59:23;;;;;;;15.05;3.50;;;;;;;-142.18;100.00;63825.25;5055248;28;20151;-72
2021/12/03 14:23:36;;;;;;;10.88;4.05;;;;;;;-142.18;100.00;63825.25;5027512;28;20113;-73
2021/12/03 14:55:29;;;;;;;8.60;3.30;;;;;;;-142.18;100.00;63825.25;5090182;28;20062;-73
2021/12/03 15:00:56;;;;;;;7.70;3.75;;;;;;;-142.18;100.00;63825.25;5089722;28;20147;-73
2021/12/03 15:06:30;;;;;;;10.23;4.30;;;;;;;-142.18;100.00;63825.25;5059505;28;20062;-73
2021/12/03 15:09:08;;;;;;;9.10;4.50;;;;;;;-142.18;100.00;63825.25;5073505;28;20083;-73
2021/12/03 15:22:14;;;;;;;15.23;5.07;;;;;;;-142.18;100.00;63825.25;5093602;28;20147;-73
2021/12/03 15:27:49;;;;;;;10.95;5.38;;;;;;;-142.18;100.00;63825.25;5093653;28;20049;-73
2021/12/03 15:30:26;;;;;;;8.32;4.57;;;;;;;-142.18;100.00;63825.25;5093634;28;20481;-73
2021/12/03 15:33:04;;;;;;;5.65;3.65;;;;;;;-142.18;100.00;63825.25;5076956;28;20155;-73
2021/12/03 15:35:41;;;;;;;10.90;4.80;;;;;;;-142.18;100.00;63825.25;5092585;28;20056;-73
2021/12/03 15:55:24;;;;;;;10.13;5.72;;;;;;;-142.18;100.00;63825.25;5091954;28;20139;-72